createdAt,value
2022-11-29T00:01:48.830Z,18.47
2022-11-29T00:04:18.203Z,17.97
2022-11-29T00:06:47.225Z,18.27
2022-11-29T00:09:16.538Z,18.93
2022-11-29T00:12:03.037Z,18.33
2022-11-29T00:14:33.801Z,17.55
2022-11-29T00:17:04.386Z,16.65
2022-11-29T00:19:34.737Z,17.67
2022-11-29T00:22:04.274Z,16.83
2022-11-29T00:24:34.561Z,18.17
2022-11-29T00:27:03.995Z,18.45
2022-11-29T00:29:37.005Z,16.80
2022-11-29T00:34:35.429Z,15.35
2022-11-29T00:37:04.508Z,16.77
2022-11-29T00:39:33.863Z,15.83
2022-11-29T00:42:02.922Z,16.55
2022-11-29T00:44:32.213Z,16.23
2022-11-29T00:47:02.589Z,16.40
2022-11-29T00:49:31.915Z,16.70
2022-11-29T00:52:00.910Z,17.10
2022-11-29T00:54:30.218Z,17.67
2022-11-29T00:56:59.315Z,16.50
2022-11-29T00:59:30.323Z,16.77
2022-11-29T01:01:59.432Z,16.10
2022-11-29T01:04:30.129Z,16.45
2022-11-29T01:09:28.286Z,16.65
2022-11-29T01:11:57.300Z,15.85
2022-11-29T01:14:26.556Z,15.70
2022-11-29T01:16:55.653Z,14.88
2022-11-29T01:19:24.955Z,14.73
2022-11-29T01:21:55.422Z,15.90
2022-11-29T01:24:24.699Z,14.80
2022-11-29T01:26:53.676Z,14.32
2022-11-29T01:29:23.000Z,13.73
2022-11-29T01:31:52.013Z,14.35
2022-11-29T01:34:21.262Z,14.30
2022-11-29T01:36:50.268Z,13.85
2022-11-29T01:39:20.957Z,14.63
2022-11-29T01:44:56.051Z,13.50
2022-11-29T01:47:25.123Z,14.38
2022-11-29T01:49:54.528Z,14.70
2022-11-29T01:52:26.954Z,14.98
2022-11-29T01:55:02.902Z,14.15
2022-11-29T01:57:32.505Z,14.35
2022-11-29T02:00:08.667Z,14.15
2022-11-29T02:02:44.911Z,14.13
2022-11-29T02:05:16.240Z,14.70
2022-11-29T02:07:47.341Z,14.95
2022-11-29T02:10:19.336Z,14.40
2022-11-29T02:13:01.281Z,14.75
2022-11-29T02:15:41.423Z,14.63
2022-11-29T02:18:14.774Z,15.70
2022-11-29T02:21:16.833Z,15.57
2022-11-29T02:24:21.587Z,15.68
2022-11-29T02:27:13.185Z,14.68
2022-11-29T02:30:07.979Z,15.07
2022-11-29T02:33:13.037Z,15.32
2022-11-29T02:36:17.797Z,15.93
2022-11-29T02:39:20.075Z,15.82
2022-11-29T02:42:13.851Z,14.20
2022-11-29T02:44:57.218Z,13.93
2022-11-29T02:47:41.947Z,13.00
2022-11-29T02:50:25.657Z,12.50
2022-11-29T02:53:03.795Z,12.82
2022-11-29T02:55:40.731Z,12.50
2022-11-29T02:58:18.056Z,12.30
2022-11-29T03:00:56.894Z,12.07
2022-11-29T03:03:34.620Z,13.13
2022-11-29T03:06:16.372Z,11.70
2022-11-29T03:08:54.152Z,12.40
2022-11-29T03:11:33.967Z,12.45
2022-11-29T03:14:15.496Z,11.07
2022-11-29T03:16:52.506Z,10.90
2022-11-29T03:19:40.726Z,10.65
2022-11-29T03:22:21.227Z,11.05
2022-11-29T03:24:57.228Z,11.27
2022-11-29T03:27:37.277Z,10.48
2022-11-29T03:30:12.092Z,10.73
2022-11-29T03:32:51.935Z,9.35
2022-11-29T03:35:27.606Z,11.30
2022-11-29T03:38:05.074Z,11.35
2022-11-29T03:40:43.389Z,11.50
2022-11-29T03:43:17.853Z,10.93
2022-11-29T03:45:54.928Z,10.63
2022-11-29T03:48:30.570Z,10.65
2022-11-29T03:51:05.256Z,11.52
2022-11-29T03:53:43.159Z,11.15
2022-11-29T03:56:28.680Z,10.70
2022-11-29T03:59:13.333Z,10.68
2022-11-29T04:02:13.976Z,12.00
2022-11-29T04:05:31.383Z,11.85
2022-11-29T04:08:46.423Z,11.10
2022-11-29T04:11:54.721Z,10.70
2022-11-29T04:14:58.201Z,11.45
2022-11-29T04:17:51.168Z,11.63
2022-11-29T04:20:49.495Z,11.52
2022-11-29T04:24:06.836Z,11.15
2022-11-29T04:27:10.243Z,11.25
2022-11-29T04:30:11.738Z,11.15
2022-11-29T04:33:30.023Z,11.57
2022-11-29T04:36:35.782Z,11.18
2022-11-29T04:39:41.191Z,11.63
2022-11-29T04:42:55.574Z,11.90
2022-11-29T04:45:50.608Z,11.73
2022-11-29T04:48:43.883Z,11.15
2022-11-29T04:51:25.959Z,11.55
2022-11-29T04:54:03.025Z,11.98
2022-11-29T04:56:41.436Z,10.80
2022-11-29T04:59:19.498Z,12.13
2022-11-29T05:01:59.636Z,11.48
2022-11-29T05:07:07.499Z,11.55
2022-11-29T05:10:01.614Z,12.10
2022-11-29T05:12:39.749Z,12.02
2022-11-29T05:15:46.262Z,12.05
2022-11-29T05:18:24.974Z,11.95
2022-11-29T05:21:01.665Z,12.65
2022-11-29T05:23:50.031Z,12.38
2022-11-29T05:26:28.235Z,11.73
2022-11-29T05:29:02.915Z,12.73
2022-11-29T05:31:50.090Z,12.70
2022-11-29T05:34:44.402Z,12.95
2022-11-29T05:37:26.362Z,11.73
2022-11-29T05:40:24.021Z,12.52
2022-11-29T05:43:07.750Z,12.13
2022-11-29T05:45:43.829Z,11.90
2022-11-29T05:48:20.806Z,12.25
2022-11-29T05:50:57.985Z,12.45
2022-11-29T05:53:32.457Z,12.23
2022-11-29T05:56:10.216Z,12.77
2022-11-29T05:58:49.221Z,12.32
2022-11-29T06:01:23.946Z,12.80
2022-11-29T06:04:01.192Z,12.73
2022-11-29T06:06:39.710Z,12.95
2022-11-29T06:09:16.685Z,11.75
2022-11-29T06:11:49.984Z,12.38
2022-11-29T06:14:39.582Z,13.48
2022-11-29T06:17:39.304Z,12.45
2022-11-29T06:20:31.422Z,12.95
2022-11-29T06:23:18.836Z,12.70
2022-11-29T06:26:04.136Z,13.15
2022-11-29T06:28:45.325Z,12.57
2022-11-29T06:31:22.192Z,12.77
2022-11-29T06:34:02.060Z,13.30
2022-11-29T06:36:37.222Z,13.10
2022-11-29T06:39:07.184Z,12.85
2022-11-29T06:41:37.199Z,13.18
2022-11-29T06:44:07.021Z,12.73
2022-11-29T06:46:46.821Z,12.43
2022-11-29T06:49:23.962Z,13.57
2022-11-29T06:52:06.576Z,12.55
2022-11-29T06:54:48.535Z,12.77
2022-11-29T06:57:25.861Z,11.77
2022-11-29T07:00:06.357Z,12.95
2022-11-29T07:03:12.752Z,12.70
2022-11-29T07:05:42.494Z,12.32
2022-11-29T07:08:18.736Z,13.18
2022-11-29T07:10:53.309Z,13.35
2022-11-29T07:13:23.148Z,13.27
2022-11-29T07:15:59.949Z,13.18
2022-11-29T07:18:40.010Z,12.35
2022-11-29T07:21:17.981Z,14.32
2022-11-29T07:23:58.727Z,13.50
2022-11-29T07:29:25.026Z,13.00
2022-11-29T07:34:40.817Z,12.55
2022-11-29T07:37:20.638Z,13.65
2022-11-29T07:40:00.733Z,13.57
2022-11-29T07:42:38.451Z,14.68
2022-11-29T07:45:19.810Z,14.05
2022-11-29T07:47:48.845Z,14.07
2022-11-29T07:50:18.507Z,15.57
2022-11-29T07:52:47.857Z,14.95
2022-11-29T07:55:21.091Z,14.35
2022-11-29T07:57:50.505Z,15.02
2022-11-29T08:00:21.138Z,14.68
2022-11-29T08:02:51.206Z,14.15
2022-11-29T08:05:20.923Z,14.55
2022-11-29T08:07:49.958Z,14.88
2022-11-29T08:10:20.742Z,14.68
2022-11-29T08:12:51.450Z,14.27
2022-11-29T08:15:22.509Z,13.90
2022-11-29T08:17:51.915Z,14.80
2022-11-29T08:20:21.649Z,13.85
2022-11-29T08:22:56.217Z,14.83
2022-11-29T08:25:27.714Z,13.90
2022-11-29T08:27:57.075Z,13.07
2022-11-29T08:30:26.404Z,13.73
2022-11-29T08:32:55.420Z,13.98
2022-11-29T08:35:25.584Z,13.88
2022-11-29T08:37:56.221Z,13.77
2022-11-29T08:40:26.948Z,14.00
2022-11-29T08:45:27.605Z,13.20
2022-11-29T08:47:56.784Z,13.18
2022-11-29T08:50:26.133Z,15.20
2022-11-29T08:53:12.642Z,13.95
2022-11-29T08:55:46.533Z,15.10
2022-11-29T08:58:16.793Z,14.25
2022-11-29T09:00:47.240Z,14.88
2022-11-29T09:03:33.818Z,15.40
2022-11-29T09:06:11.943Z,14.43
2022-11-29T09:08:43.820Z,15.20
2022-11-29T09:11:16.247Z,13.73
2022-11-29T09:13:48.025Z,15.50
2022-11-29T09:16:19.911Z,14.40
2022-11-29T09:18:51.959Z,14.48
2022-11-29T09:21:21.635Z,14.98
2022-11-29T09:23:51.115Z,15.07
2022-11-29T09:26:21.985Z,15.52
2022-11-29T09:28:50.959Z,15.77
2022-11-29T09:31:21.520Z,14.75
2022-11-29T09:33:50.886Z,16.75
2022-11-29T09:36:23.807Z,15.35
2022-11-29T09:38:57.119Z,16.38
2022-11-29T09:41:48.541Z,15.00
2022-11-29T09:44:23.339Z,16.38
2022-11-29T09:47:04.896Z,15.82
2022-11-29T09:50:03.703Z,16.80
2022-11-29T09:52:45.400Z,15.95
2022-11-29T09:55:35.306Z,16.75
2022-11-29T09:58:11.642Z,14.98
2022-11-29T10:00:47.092Z,16.50
2022-11-29T10:03:23.247Z,16.25
2022-11-29T10:05:57.521Z,17.27
2022-11-29T10:08:34.201Z,15.73
2022-11-29T10:11:16.417Z,17.42
2022-11-29T10:13:51.915Z,17.90
2022-11-29T10:16:28.155Z,16.90
2022-11-29T10:19:04.313Z,17.65
2022-11-29T10:21:39.558Z,16.83
2022-11-29T10:24:14.788Z,18.17
2022-11-29T10:26:44.517Z,17.42
2022-11-29T10:29:17.510Z,18.17
2022-11-29T10:31:49.521Z,18.80
2022-11-29T10:34:21.088Z,17.10
2022-11-29T10:36:52.369Z,18.05
2022-11-29T10:39:26.907Z,17.40
2022-11-29T10:42:01.389Z,17.35
2022-11-29T10:44:34.549Z,17.33
2022-11-29T10:47:10.655Z,18.25
2022-11-29T10:49:40.836Z,17.75
2022-11-29T10:52:20.602Z,16.83
2022-11-29T10:54:51.990Z,18.25
2022-11-29T10:57:23.428Z,18.65
2022-11-29T11:00:04.367Z,18.30
2022-11-29T11:02:34.483Z,17.85
2022-11-29T11:05:13.162Z,18.02
2022-11-29T11:07:42.748Z,18.30
2022-11-29T11:10:23.452Z,18.77
2022-11-29T11:15:33.968Z,16.65
2022-11-29T11:18:05.917Z,16.88
2022-11-29T11:20:37.611Z,17.90
2022-11-29T11:23:09.022Z,17.67
2022-11-29T11:25:40.843Z,17.05
2022-11-29T11:28:18.047Z,17.60
2022-11-29T11:30:55.216Z,15.95
2022-11-29T11:33:27.675Z,17.38
2022-11-29T11:36:08.772Z,18.05
2022-11-29T11:38:39.721Z,16.85
2022-11-29T11:41:22.076Z,20.27
2022-11-29T11:43:57.660Z,18.05
2022-11-29T11:46:48.570Z,17.00
2022-11-29T11:49:31.383Z,18.17
2022-11-29T11:52:02.469Z,16.83
2022-11-29T11:54:31.962Z,17.63
2022-11-29T11:57:01.827Z,17.23
2022-11-29T11:59:31.337Z,17.33
2022-11-29T12:02:02.030Z,16.25
2022-11-29T12:04:35.978Z,17.55
2022-11-29T12:07:10.981Z,17.00
2022-11-29T12:09:47.531Z,17.50
2022-11-29T12:12:20.653Z,17.00
2022-11-29T12:14:58.398Z,17.38
2022-11-29T12:17:37.704Z,17.00
2022-11-29T12:20:21.812Z,18.25
2022-11-29T12:23:14.032Z,16.60
2022-11-29T12:25:50.017Z,17.27
2022-11-29T12:28:21.256Z,17.75
2022-11-29T12:31:00.039Z,17.13
2022-11-29T12:33:39.965Z,17.42
2022-11-29T12:36:26.695Z,17.13
2022-11-29T12:39:15.839Z,18.25
2022-11-29T12:41:54.187Z,16.60
2022-11-29T12:44:43.514Z,15.75
2022-11-29T12:47:39.140Z,16.92
2022-11-29T12:50:47.573Z,17.33
2022-11-29T12:53:37.803Z,16.85
2022-11-29T12:56:16.030Z,17.98
2022-11-29T12:59:02.235Z,17.70
2022-11-29T13:01:42.557Z,19.80
2022-11-29T13:04:20.678Z,20.08
2022-11-29T13:06:57.604Z,18.90
2022-11-29T13:09:51.155Z,19.40
2022-11-29T13:12:28.972Z,20.48
2022-11-29T13:15:04.170Z,19.67
2022-11-29T13:17:40.550Z,21.27
2022-11-29T13:20:25.578Z,20.80
2022-11-29T13:23:04.005Z,21.38
2022-11-29T13:25:38.660Z,21.35
2022-11-29T13:28:12.656Z,21.23
2022-11-29T13:30:43.062Z,21.45
2022-11-29T13:33:21.620Z,21.58
2022-11-29T13:35:58.554Z,22.15
2022-11-29T13:38:37.071Z,19.92
2022-11-29T13:41:21.426Z,20.52
2022-11-29T13:43:58.859Z,20.38
2022-11-29T13:46:34.345Z,19.73
2022-11-29T13:49:03.965Z,20.58
2022-11-29T13:51:35.335Z,19.80
2022-11-29T13:54:08.271Z,19.77
2022-11-29T13:56:46.389Z,19.83
2022-11-29T13:59:23.880Z,20.73
2022-11-29T14:01:55.255Z,21.50
2022-11-29T14:04:36.522Z,21.17
2022-11-29T14:07:11.843Z,20.92
2022-11-29T14:09:52.011Z,21.73
2022-11-29T14:12:39.472Z,20.70
2022-11-29T14:15:25.567Z,20.92
2022-11-29T14:17:57.940Z,20.10
2022-11-29T14:20:46.614Z,21.48
2022-11-29T14:23:18.902Z,20.65
2022-11-29T14:26:28.525Z,19.75
2022-11-29T14:29:00.732Z,21.02
2022-11-29T14:31:52.385Z,20.27
2022-11-29T14:34:43.549Z,20.92
2022-11-29T14:37:30.445Z,20.38
2022-11-29T14:40:03.398Z,21.42
2022-11-29T14:42:33.360Z,19.58
2022-11-29T14:45:06.345Z,21.38
2022-11-29T14:47:38.994Z,21.02
2022-11-29T14:50:10.781Z,21.38
2022-11-29T14:52:50.675Z,19.98
2022-11-29T14:55:32.547Z,21.10
2022-11-29T14:58:18.572Z,20.33
2022-11-29T15:01:10.413Z,20.58
2022-11-29T15:03:52.110Z,20.40
2022-11-29T15:06:27.138Z,21.38
2022-11-29T15:09:02.870Z,21.15
2022-11-29T15:11:50.323Z,20.10
2022-11-29T15:14:30.277Z,20.90
2022-11-29T15:17:24.274Z,21.63
2022-11-29T15:20:17.043Z,22.27
2022-11-29T15:22:52.526Z,22.05
2022-11-29T15:25:24.203Z,21.05
2022-11-29T15:27:54.500Z,21.42
2022-11-29T15:30:31.006Z,21.58
2022-11-29T15:33:04.163Z,21.73
2022-11-29T15:35:35.612Z,20.60
2022-11-29T15:38:05.074Z,21.50
2022-11-29T15:40:37.268Z,20.98
2022-11-29T15:43:17.592Z,20.95
2022-11-29T15:45:51.116Z,22.63
2022-11-29T15:48:27.167Z,19.67
2022-11-29T15:51:03.589Z,18.70
2022-11-29T15:53:38.386Z,17.15
2022-11-29T15:56:16.439Z,18.40
2022-11-29T15:58:47.130Z,18.10
2022-11-29T16:01:22.284Z,16.73
2022-11-29T16:03:56.055Z,17.90
2022-11-29T16:06:30.139Z,17.67
2022-11-29T16:09:01.198Z,18.73
2022-11-29T16:11:33.258Z,18.58
2022-11-29T16:14:15.193Z,19.30
2022-11-29T16:16:46.230Z,17.23
2022-11-29T16:19:31.116Z,19.08
2022-11-29T16:22:03.131Z,17.42
2022-11-29T16:24:35.786Z,18.65
2022-11-29T16:27:06.424Z,18.73
2022-11-29T16:29:38.134Z,16.73
2022-11-29T16:32:16.695Z,17.80
2022-11-29T16:34:47.301Z,16.42
2022-11-29T16:37:21.583Z,16.75
2022-11-29T16:39:54.291Z,15.18
2022-11-29T16:42:35.419Z,17.55
2022-11-29T16:45:28.639Z,16.80
2022-11-29T16:47:59.702Z,15.25
2022-11-29T16:50:31.865Z,15.63
2022-11-29T16:53:33.965Z,16.08
2022-11-29T16:56:02.989Z,15.70
2022-11-29T16:58:38.746Z,14.60
2022-11-29T17:01:18.816Z,16.45
2022-11-29T17:03:48.487Z,15.88
2022-11-29T17:06:22.622Z,14.40
2022-11-29T17:08:53.357Z,15.95
2022-11-29T17:13:51.787Z,15.68
2022-11-29T17:16:23.590Z,16.80
2022-11-29T17:18:53.859Z,15.30
2022-11-29T17:21:26.231Z,16.52
2022-11-29T17:23:56.139Z,17.25
2022-11-29T17:26:25.559Z,18.23
2022-11-29T17:28:55.042Z,15.95
2022-11-29T17:31:25.441Z,17.70
2022-11-29T17:33:55.550Z,17.65
2022-11-29T17:36:25.922Z,18.98
2022-11-29T17:38:57.283Z,18.55
2022-11-29T17:41:30.771Z,18.63
2022-11-29T17:44:01.290Z,18.52
2022-11-29T17:49:02.167Z,17.70
2022-11-29T17:54:22.593Z,17.98
2022-11-29T17:56:52.107Z,18.30
2022-11-29T17:59:21.483Z,18.08
2022-11-29T18:01:50.896Z,18.90
2022-11-29T18:04:20.755Z,17.90
2022-11-29T18:06:51.214Z,17.60
2022-11-29T18:09:21.218Z,18.98
2022-11-29T18:11:51.073Z,19.33
2022-11-29T18:14:22.958Z,18.55
2022-11-29T18:16:52.465Z,17.27
2022-11-29T18:19:23.781Z,17.75
2022-11-29T18:21:54.296Z,18.15
2022-11-29T18:24:23.639Z,17.75
2022-11-29T18:26:53.655Z,18.00
2022-11-29T18:29:23.263Z,19.05
2022-11-29T18:31:52.279Z,17.98
2022-11-29T18:34:21.645Z,19.40
2022-11-29T18:36:51.147Z,19.00
2022-11-29T18:39:25.111Z,17.70
2022-11-29T18:41:54.136Z,18.63
2022-11-29T18:44:29.253Z,20.20
2022-11-29T18:46:58.933Z,21.17
2022-11-29T18:49:28.177Z,21.45
2022-11-29T18:51:57.235Z,20.55
2022-11-29T18:54:29.111Z,21.85
2022-11-29T18:56:58.288Z,21.13
2022-11-29T18:59:27.571Z,20.15
2022-11-29T19:01:57.150Z,20.17
2022-11-29T19:04:26.589Z,19.15
2022-11-29T19:06:57.440Z,17.50
2022-11-29T19:09:28.199Z,18.45
2022-11-29T19:11:57.407Z,19.73
2022-11-29T19:14:26.737Z,18.50
2022-11-29T19:16:55.720Z,18.45
2022-11-29T19:19:25.180Z,18.48
2022-11-29T19:21:54.230Z,17.58
2022-11-29T19:24:23.533Z,18.70
2022-11-29T19:26:55.831Z,19.17
2022-11-29T19:29:39.770Z,17.70
2022-11-29T19:32:09.495Z,17.90
2022-11-29T19:34:38.772Z,18.48
2022-11-29T19:37:09.376Z,18.73
2022-11-29T19:39:38.960Z,17.45
2022-11-29T19:42:09.539Z,18.50
2022-11-29T19:45:09.007Z,16.55
2022-11-29T19:47:29.377Z,16.95
2022-11-29T19:50:02.334Z,17.20
2022-11-29T19:52:32.034Z,17.02
2022-11-29T19:55:01.315Z,18.20
2022-11-29T19:57:31.804Z,17.65
2022-11-29T20:00:01.371Z,17.10
2022-11-29T20:02:30.608Z,16.60
2022-11-29T20:05:00.074Z,19.00
2022-11-29T20:07:29.133Z,16.95
2022-11-29T20:09:58.543Z,17.83
2022-11-29T20:12:27.826Z,18.75
2022-11-29T20:15:00.874Z,17.80
2022-11-29T20:17:30.067Z,18.42
2022-11-29T20:19:59.397Z,17.55
2022-11-29T20:22:28.481Z,17.55
2022-11-29T20:24:57.847Z,16.00
2022-11-29T20:27:26.838Z,16.75
2022-11-29T20:29:57.628Z,16.80
2022-11-29T20:32:28.488Z,15.75
2022-11-29T20:34:59.110Z,16.70
2022-11-29T20:40:10.874Z,15.90
2022-11-29T20:42:56.907Z,16.70
2022-11-29T20:45:28.604Z,15.77
2022-11-29T20:48:03.587Z,16.38
2022-11-29T20:50:34.686Z,16.98
2022-11-29T20:53:19.755Z,16.95
2022-11-29T20:55:50.084Z,15.93
2022-11-29T20:58:19.762Z,15.80
2022-11-29T21:00:50.619Z,16.98
2022-11-29T21:03:20.886Z,16.02
2022-11-29T21:05:50.834Z,16.50
2022-11-29T21:08:22.086Z,17.20
2022-11-29T21:10:52.549Z,17.55
2022-11-29T21:13:24.027Z,17.20
2022-11-29T21:15:55.491Z,16.77
2022-11-29T21:18:26.610Z,17.38
2022-11-29T21:21:10.730Z,16.60
2022-11-29T21:23:53.777Z,17.77
2022-11-29T21:26:27.006Z,16.02
2022-11-29T21:29:06.737Z,16.70
2022-11-29T21:31:38.567Z,17.45
2022-11-29T21:34:08.433Z,17.75
2022-11-29T21:36:38.351Z,17.85
2022-11-29T21:39:08.703Z,17.73
2022-11-29T21:41:38.264Z,17.60
2022-11-29T21:44:08.189Z,17.85
2022-11-29T21:46:39.434Z,18.13
2022-11-29T21:49:08.673Z,17.48
2022-11-29T21:51:37.993Z,17.33
2022-11-29T21:54:07.118Z,16.70
2022-11-29T21:56:36.449Z,18.67
2022-11-29T21:59:05.813Z,16.88
2022-11-29T22:01:35.221Z,17.42
2022-11-29T22:04:05.898Z,17.52
2022-11-29T22:06:36.793Z,16.67
2022-11-29T22:09:07.707Z,16.05
2022-11-29T22:11:37.289Z,17.67
2022-11-29T22:14:15.756Z,16.98
2022-11-29T22:16:47.243Z,16.75
2022-11-29T22:19:19.828Z,17.30
2022-11-29T22:21:52.612Z,16.80
2022-11-29T22:24:23.838Z,16.05
2022-11-29T22:26:54.578Z,16.75
2022-11-29T22:31:54.939Z,15.60
2022-11-29T22:34:27.332Z,16.48
2022-11-29T22:36:57.146Z,16.70
2022-11-29T22:39:26.193Z,17.40
2022-11-29T22:41:55.531Z,16.67
2022-11-29T22:44:24.716Z,16.83
2022-11-29T22:46:54.043Z,15.47
2022-11-29T22:49:26.534Z,16.20
2022-11-29T22:51:55.913Z,17.33
2022-11-29T22:54:24.880Z,17.08
2022-11-29T22:56:54.178Z,16.25
2022-11-29T22:59:23.186Z,16.90
2022-11-29T23:01:52.535Z,17.05
2022-11-29T23:04:21.584Z,16.75
2022-11-29T23:06:52.269Z,16.45
2022-11-29T23:11:56.252Z,16.35
2022-11-29T23:14:25.814Z,16.55
2022-11-29T23:16:55.395Z,16.80
2022-11-29T23:19:24.501Z,17.65
2022-11-29T23:21:56.486Z,17.52
2022-11-29T23:24:25.539Z,15.80
2022-11-29T23:26:54.967Z,17.85
2022-11-29T23:29:24.135Z,16.77
2022-11-29T23:31:53.702Z,17.63
2022-11-29T23:34:22.855Z,16.33
2022-11-29T23:36:53.250Z,17.30
2022-11-29T23:41:53.224Z,15.63
2022-11-29T23:44:22.340Z,17.77
2022-11-29T23:46:51.714Z,16.67
2022-11-29T23:49:20.811Z,17.67
2022-11-29T23:51:50.226Z,16.50
2022-11-29T23:54:19.305Z,16.25
2022-11-29T23:56:50.153Z,16.73
2022-11-29T23:59:19.484Z,17.17
